createdAt,value
2022-10-28T00:01:47.298Z,17.74
2022-10-28T00:04:17.868Z,17.69
2022-10-28T00:06:47.054Z,17.69
2022-10-28T00:09:16.194Z,17.73
2022-10-28T00:11:45.363Z,17.68
2022-10-28T00:14:15.148Z,17.66
2022-10-28T00:16:44.405Z,17.61
2022-10-28T00:19:14.970Z,17.63
2022-10-28T00:21:46.741Z,17.59
2022-10-28T00:24:16.189Z,17.50
2022-10-28T00:26:46.202Z,17.53
2022-10-28T00:29:17.645Z,17.45
2022-10-28T00:31:47.933Z,17.45
2022-10-28T00:34:19.872Z,17.36
2022-10-28T00:36:51.354Z,17.43
2022-10-28T00:39:22.659Z,17.30
2022-10-28T00:41:53.792Z,17.26
2022-10-28T00:44:58.822Z,17.18
2022-10-28T00:47:45.448Z,17.35
2022-10-28T00:50:35.787Z,17.34
2022-10-28T00:53:11.303Z,17.31
2022-10-28T00:55:40.940Z,17.42
2022-10-28T00:58:11.753Z,17.43
2022-10-28T01:00:40.994Z,17.49
2022-10-28T01:03:11.041Z,17.43
2022-10-28T01:05:44.134Z,17.45
2022-10-28T01:08:15.569Z,17.36
2022-10-28T01:11:05.864Z,17.47
2022-10-28T01:13:49.763Z,17.38
2022-10-28T01:16:34.932Z,17.41
2022-10-28T01:19:39.458Z,17.32
2022-10-28T01:22:21.392Z,17.37
2022-10-28T01:25:37.834Z,17.37
2022-10-28T01:28:37.476Z,17.30
2022-10-28T01:31:24.829Z,17.31
2022-10-28T01:34:08.009Z,17.26
2022-10-28T01:36:45.327Z,17.29
2022-10-28T01:39:25.948Z,17.27
2022-10-28T01:42:02.201Z,17.19
2022-10-28T01:44:40.507Z,17.24
2022-10-28T01:47:15.766Z,17.25
2022-10-28T01:49:52.917Z,17.18
2022-10-28T01:52:27.050Z,17.02
2022-10-28T01:55:01.675Z,17.11
2022-10-28T01:57:34.002Z,17.06
2022-10-28T02:00:04.433Z,17.06
2022-10-28T02:02:43.892Z,17.16
2022-10-28T02:05:47.103Z,17.27
2022-10-28T02:08:31.532Z,17.19
2022-10-28T02:11:17.054Z,17.22
2022-10-28T02:13:59.356Z,17.20
2022-10-28T02:16:39.669Z,17.17
2022-10-28T02:19:20.355Z,17.23
2022-10-28T02:22:02.471Z,17.03
2022-10-28T02:24:47.268Z,17.04
2022-10-28T02:27:24.693Z,16.96
2022-10-28T02:30:01.426Z,16.97
2022-10-28T02:32:35.453Z,17.10
2022-10-28T02:35:14.150Z,17.08
2022-10-28T02:37:45.338Z,17.04
2022-10-28T02:40:22.812Z,16.97
2022-10-28T02:42:57.009Z,16.97
2022-10-28T02:45:30.827Z,16.87
2022-10-28T02:48:05.097Z,16.90
2022-10-28T02:50:40.971Z,16.97
2022-10-28T02:53:18.289Z,16.97
2022-10-28T02:55:55.231Z,17.09
2022-10-28T02:58:24.707Z,17.19
2022-10-28T03:00:53.910Z,17.26
2022-10-28T03:03:23.081Z,17.37
2022-10-28T03:05:53.641Z,17.33
2022-10-28T03:08:24.827Z,17.27
2022-10-28T03:10:54.016Z,17.19
2022-10-28T03:13:23.170Z,17.15
2022-10-28T03:15:52.323Z,17.22
2022-10-28T03:18:21.543Z,17.14
2022-10-28T03:20:55.373Z,17.16
2022-10-28T03:23:27.390Z,17.14
2022-10-28T03:25:56.434Z,17.15
2022-10-28T03:28:25.545Z,17.11
2022-10-28T03:30:54.677Z,17.15
2022-10-28T03:33:23.853Z,17.23
2022-10-28T03:35:54.340Z,17.22
2022-10-28T03:38:23.480Z,17.13
2022-10-28T03:40:52.849Z,17.11
2022-10-28T03:43:21.990Z,17.15
2022-10-28T03:45:51.135Z,17.04
2022-10-28T03:48:20.238Z,17.07
2022-10-28T03:50:53.238Z,17.12
2022-10-28T03:53:27.539Z,17.15
2022-10-28T03:56:02.649Z,17.18
2022-10-28T03:58:31.825Z,17.20
2022-10-28T04:01:01.072Z,17.14
2022-10-28T04:03:30.308Z,17.05
2022-10-28T04:05:59.530Z,17.05
2022-10-28T04:08:30.125Z,17.10
2022-10-28T04:10:59.341Z,17.19
2022-10-28T04:13:28.545Z,17.12
2022-10-28T04:15:57.746Z,17.02
2022-10-28T04:18:27.208Z,17.07
2022-10-28T04:20:56.413Z,17.18
2022-10-28T04:23:25.641Z,17.10
2022-10-28T04:25:56.723Z,17.09
2022-10-28T04:28:25.911Z,17.04
2022-10-28T04:30:55.055Z,17.01
2022-10-28T04:33:24.122Z,16.88
2022-10-28T04:35:53.676Z,16.35
2022-10-28T04:38:22.882Z,15.73
2022-10-28T04:40:52.182Z,15.45
2022-10-28T04:43:22.761Z,15.10
2022-10-28T04:45:51.953Z,14.71
2022-10-28T04:48:21.500Z,14.45
2022-10-28T04:50:51.278Z,14.33
2022-10-28T04:53:20.476Z,14.09
2022-10-28T04:55:49.578Z,13.78
2022-10-28T04:58:18.786Z,13.57
2022-10-28T05:00:49.365Z,13.30
2022-10-28T05:03:18.753Z,13.33
2022-10-28T05:05:48.352Z,13.42
2022-10-28T05:08:17.473Z,13.46
2022-10-28T05:10:50.116Z,13.29
2022-10-28T05:13:19.334Z,13.26
2022-10-28T05:15:51.324Z,13.41
2022-10-28T05:18:20.437Z,13.24
2022-10-28T05:20:54.852Z,13.21
2022-10-28T05:23:27.174Z,13.26
2022-10-28T05:25:59.275Z,13.26
2022-10-28T05:28:28.526Z,13.18
2022-10-28T05:30:59.123Z,13.23
2022-10-28T05:33:28.325Z,13.16
2022-10-28T05:35:59.621Z,13.14
2022-10-28T05:38:29.184Z,12.88
2022-10-28T05:40:58.359Z,12.84
2022-10-28T05:43:27.516Z,12.73
2022-10-28T05:45:59.350Z,12.73
2022-10-28T05:48:28.638Z,12.75
2022-10-28T05:50:57.739Z,12.70
2022-10-28T05:53:26.980Z,12.74
2022-10-28T05:55:56.096Z,12.70
2022-10-28T05:58:25.239Z,12.65
2022-10-28T06:00:54.435Z,12.51
2022-10-28T06:03:30.057Z,12.36
2022-10-28T06:06:00.851Z,12.32
2022-10-28T06:08:30.750Z,12.35
2022-10-28T06:10:59.960Z,12.34
2022-10-28T06:13:29.089Z,12.19
2022-10-28T06:15:58.288Z,12.22
2022-10-28T06:18:28.960Z,12.18
2022-10-28T06:20:59.298Z,12.25
2022-10-28T06:23:28.530Z,12.22
2022-10-28T06:25:58.916Z,12.27
2022-10-28T06:28:28.660Z,12.27
2022-10-28T06:31:02.937Z,12.12
2022-10-28T06:33:33.923Z,12.23
2022-10-28T06:36:03.587Z,12.19
2022-10-28T06:38:32.783Z,12.22
2022-10-28T06:41:01.927Z,12.22
2022-10-28T06:43:31.081Z,12.24
2022-10-28T06:46:02.401Z,12.25
2022-10-28T06:48:34.925Z,12.18
2022-10-28T06:51:04.259Z,12.15
2022-10-28T06:53:33.672Z,12.01
2022-10-28T06:56:02.862Z,12.24
2022-10-28T06:58:32.066Z,12.19
2022-10-28T07:01:05.770Z,12.23
2022-10-28T07:03:36.398Z,12.21
2022-10-28T07:06:06.482Z,12.22
2022-10-28T07:08:35.767Z,12.16
2022-10-28T07:11:05.034Z,12.24
2022-10-28T07:13:34.324Z,12.25
2022-10-28T07:16:03.562Z,12.20
2022-10-28T07:18:32.921Z,12.16
2022-10-28T07:21:03.859Z,12.10
2022-10-28T07:23:34.282Z,12.22
2022-10-28T07:26:03.579Z,12.18
2022-10-28T07:28:32.915Z,12.14
2022-10-28T07:31:02.909Z,12.13
2022-10-28T07:33:32.461Z,12.29
2022-10-28T07:36:05.382Z,12.20
2022-10-28T07:38:35.319Z,12.25
2022-10-28T07:41:07.054Z,12.25
2022-10-28T07:43:38.515Z,12.26
2022-10-28T07:46:09.037Z,12.36
2022-10-28T07:48:39.147Z,12.38
2022-10-28T07:51:13.044Z,12.40
2022-10-28T07:53:42.989Z,12.34
2022-10-28T07:56:14.477Z,12.43
2022-10-28T07:58:45.622Z,12.50
2022-10-28T08:01:18.168Z,12.49
2022-10-28T08:03:48.671Z,12.54
2022-10-28T08:06:22.081Z,12.53
2022-10-28T08:08:57.290Z,12.67
2022-10-28T08:11:26.605Z,12.71
2022-10-28T08:13:56.487Z,12.65
2022-10-28T08:16:25.788Z,12.68
2022-10-28T08:18:55.080Z,12.81
2022-10-28T08:21:27.255Z,12.87
2022-10-28T08:23:56.925Z,12.94
2022-10-28T08:26:26.454Z,13.00
2022-10-28T08:28:55.725Z,12.91
2022-10-28T08:31:24.847Z,13.03
2022-10-28T08:33:53.982Z,13.07
2022-10-28T08:36:24.521Z,13.17
2022-10-28T08:38:53.799Z,13.23
2022-10-28T08:41:32.544Z,13.37
2022-10-28T08:44:32.734Z,13.42
2022-10-28T08:47:16.793Z,13.38
2022-10-28T08:49:49.349Z,13.58
2022-10-28T08:52:26.791Z,13.61
2022-10-28T08:55:03.781Z,13.78
2022-10-28T08:57:43.462Z,13.85
2022-10-28T09:00:23.552Z,13.95
2022-10-28T09:03:22.569Z,13.98
2022-10-28T09:06:03.960Z,14.07
2022-10-28T09:08:38.948Z,14.07
2022-10-28T09:11:27.518Z,14.15
2022-10-28T09:14:13.243Z,14.13
2022-10-28T09:16:48.668Z,14.24
2022-10-28T09:19:37.043Z,14.23
2022-10-28T09:22:23.123Z,14.21
2022-10-28T09:24:57.439Z,14.30
2022-10-28T09:27:53.269Z,14.27
2022-10-28T09:30:43.317Z,14.36
2022-10-28T09:33:37.278Z,14.44
2022-10-28T09:36:12.775Z,14.49
2022-10-28T09:38:42.239Z,14.61
2022-10-28T09:41:20.386Z,14.65
2022-10-28T09:43:54.634Z,14.73
2022-10-28T09:46:31.935Z,14.85
2022-10-28T09:49:07.201Z,14.85
2022-10-28T09:51:47.433Z,14.90
2022-10-28T09:54:16.668Z,15.03
2022-10-28T09:56:47.216Z,15.05
2022-10-28T09:59:17.751Z,15.08
2022-10-28T10:01:47.863Z,15.22
2022-10-28T10:04:22.011Z,15.17
2022-10-28T10:06:54.101Z,15.35
2022-10-28T10:09:28.006Z,15.33
2022-10-28T10:12:04.137Z,15.40
2022-10-28T10:14:41.688Z,15.47
2022-10-28T10:17:18.001Z,15.44
2022-10-28T10:20:07.350Z,15.65
2022-10-28T10:22:39.573Z,15.66
2022-10-28T10:25:32.705Z,15.80
2022-10-28T10:28:06.068Z,15.87
2022-10-28T10:30:41.230Z,15.99
2022-10-28T10:33:21.513Z,15.99
2022-10-28T10:36:00.074Z,16.00
2022-10-28T10:38:31.667Z,16.05
2022-10-28T10:41:01.290Z,16.20
2022-10-28T10:43:36.297Z,16.52
2022-10-28T10:46:13.934Z,17.24
2022-10-28T10:48:44.255Z,17.98
2022-10-28T10:51:23.403Z,18.78
2022-10-28T10:53:56.659Z,19.48
2022-10-28T10:56:28.984Z,20.05
2022-10-28T10:59:22.422Z,20.35
2022-10-28T11:01:52.887Z,20.59
2022-10-28T11:04:25.480Z,21.04
2022-10-28T11:06:58.142Z,21.18
2022-10-28T11:09:32.606Z,21.39
2022-10-28T11:12:04.224Z,21.59
2022-10-28T11:14:36.936Z,21.79
2022-10-28T11:17:24.160Z,21.84
2022-10-28T11:19:58.073Z,21.92
2022-10-28T11:22:44.328Z,21.96
2022-10-28T11:25:31.099Z,22.09
2022-10-28T11:28:31.249Z,22.05
2022-10-28T11:31:18.797Z,22.08
2022-10-28T11:33:59.989Z,22.29
2022-10-28T11:36:36.921Z,22.54
2022-10-28T11:39:21.494Z,22.48
2022-10-28T11:42:09.916Z,22.83
2022-10-28T11:44:51.277Z,22.72
2022-10-28T11:47:58.428Z,23.19
2022-10-28T11:50:44.541Z,23.29
2022-10-28T11:54:02.338Z,23.12
2022-10-28T11:56:39.472Z,23.33
2022-10-28T11:59:35.319Z,23.26
2022-10-28T12:02:26.121Z,23.15
2022-10-28T12:05:06.541Z,23.43
2022-10-28T12:07:52.487Z,23.53
2022-10-28T12:10:40.673Z,23.79
2022-10-28T12:13:22.055Z,24.12
2022-10-28T12:15:58.971Z,24.12
2022-10-28T12:18:34.269Z,24.36
2022-10-28T12:21:14.120Z,24.25
2022-10-28T12:23:44.740Z,24.02
2022-10-28T12:26:18.563Z,23.99
2022-10-28T12:28:53.040Z,23.78
2022-10-28T12:31:27.773Z,23.66
2022-10-28T12:34:00.317Z,23.56
2022-10-28T12:36:37.057Z,23.31
2022-10-28T12:39:16.784Z,23.05
2022-10-28T12:41:57.031Z,22.75
2022-10-28T12:44:28.307Z,22.32
2022-10-28T12:47:08.320Z,22.19
2022-10-28T12:49:49.754Z,22.06
2022-10-28T12:52:32.125Z,21.66
2022-10-28T12:55:10.209Z,21.52
2022-10-28T12:57:40.826Z,21.57
2022-10-28T13:00:20.918Z,21.29
2022-10-28T13:02:57.083Z,21.49
2022-10-28T13:05:35.648Z,21.70
2022-10-28T13:08:37.901Z,21.53
2022-10-28T13:12:16.864Z,21.70
2022-10-28T13:15:39.458Z,21.73
2022-10-28T13:18:57.133Z,21.86
2022-10-28T13:21:54.274Z,22.15
2022-10-28T13:24:36.088Z,21.90
2022-10-28T13:27:06.506Z,22.14
2022-10-28T13:29:38.593Z,22.17
2022-10-28T13:32:08.352Z,22.18
2022-10-28T13:34:41.385Z,21.97
2022-10-28T13:37:23.695Z,21.99
2022-10-28T13:39:54.241Z,21.88
2022-10-28T13:42:54.720Z,21.88
2022-10-28T13:45:49.251Z,21.68
2022-10-28T13:48:48.017Z,21.65
2022-10-28T13:51:47.420Z,21.51
2022-10-28T13:54:29.169Z,21.51
2022-10-28T13:57:07.298Z,21.59
2022-10-28T13:59:54.727Z,21.31
2022-10-28T14:02:35.615Z,21.23
2022-10-28T14:05:08.910Z,21.18
2022-10-28T14:07:42.430Z,21.18
2022-10-28T14:10:23.722Z,21.22
2022-10-28T14:12:59.030Z,21.24
2022-10-28T14:15:32.065Z,21.13
2022-10-28T14:18:15.915Z,21.24
2022-10-28T14:21:01.701Z,21.03
2022-10-28T14:24:12.752Z,20.70
2022-10-28T14:27:41.735Z,20.57
2022-10-28T14:30:24.017Z,20.45
2022-10-28T14:33:03.736Z,20.43
2022-10-28T14:35:40.208Z,20.42
2022-10-28T14:38:59.279Z,20.59
2022-10-28T14:42:00.414Z,20.57
2022-10-28T14:44:54.376Z,20.45
2022-10-28T14:47:55.727Z,20.39
2022-10-28T14:50:33.245Z,20.52
2022-10-28T14:53:07.041Z,20.60
2022-10-28T14:55:37.779Z,20.56
2022-10-28T14:58:23.115Z,20.72
2022-10-28T15:01:14.098Z,20.98
2022-10-28T15:03:47.121Z,21.10
2022-10-28T15:06:39.393Z,21.31
2022-10-28T15:09:21.470Z,21.41
2022-10-28T15:11:56.049Z,21.67
2022-10-28T15:14:34.685Z,21.41
2022-10-28T15:17:16.939Z,21.58
2022-10-28T15:19:49.827Z,21.64
2022-10-28T15:22:23.889Z,21.79
2022-10-28T15:25:01.512Z,21.72
2022-10-28T15:27:33.715Z,21.65
2022-10-28T15:30:04.260Z,21.23
2022-10-28T15:32:35.942Z,20.85
2022-10-28T15:35:39.871Z,20.56
2022-10-28T15:38:35.871Z,20.40
2022-10-28T15:41:49.562Z,20.00
2022-10-28T15:44:35.711Z,19.79
2022-10-28T15:47:23.610Z,19.49
2022-10-28T15:50:02.906Z,19.38
2022-10-28T15:52:43.152Z,19.15
2022-10-28T15:58:36.806Z,19.10
2022-10-28T16:01:10.137Z,18.95
2022-10-28T16:03:49.332Z,18.94
2022-10-28T16:06:29.365Z,18.98
2022-10-28T16:09:19.082Z,18.79
2022-10-28T16:11:51.859Z,18.78
2022-10-28T16:14:37.723Z,18.73
2022-10-28T16:17:13.009Z,18.76
2022-10-28T16:19:47.726Z,18.57
2022-10-28T16:22:18.508Z,18.57
2022-10-28T16:24:50.050Z,18.41
2022-10-28T16:27:22.347Z,18.38
2022-10-28T16:29:51.757Z,18.28
2022-10-28T16:32:27.970Z,18.28
2022-10-28T16:34:58.745Z,18.16
2022-10-28T16:37:30.023Z,18.13
2022-10-28T16:40:00.530Z,18.03
2022-10-28T16:42:29.715Z,18.08
2022-10-28T16:44:58.874Z,17.98
2022-10-28T16:47:29.242Z,17.95
2022-10-28T16:49:58.430Z,17.93
2022-10-28T16:52:31.050Z,17.85
2022-10-28T16:55:01.506Z,17.85
2022-10-28T16:57:30.719Z,17.72
2022-10-28T16:59:59.926Z,17.79
2022-10-28T17:02:32.786Z,17.75
2022-10-28T17:05:05.129Z,17.64
2022-10-28T17:07:34.589Z,17.63
2022-10-28T17:10:07.140Z,17.54
2022-10-28T17:12:36.382Z,17.61
2022-10-28T17:15:06.378Z,17.56
2022-10-28T17:17:35.550Z,17.56
2022-10-28T17:20:05.572Z,17.47
2022-10-28T17:22:34.993Z,17.41
2022-10-28T17:25:06.338Z,17.46
2022-10-28T17:27:35.507Z,17.45
2022-10-28T17:30:06.151Z,17.43
2022-10-28T17:32:35.574Z,17.39
2022-10-28T17:35:05.222Z,17.37
2022-10-28T17:37:35.028Z,17.39
2022-10-28T17:40:07.064Z,17.34
2022-10-28T17:42:36.375Z,17.24
2022-10-28T17:45:06.580Z,17.28
2022-10-28T17:47:36.359Z,17.21
2022-10-28T17:50:06.803Z,17.22
2022-10-28T17:52:38.509Z,17.19
2022-10-28T17:55:10.888Z,17.16
2022-10-28T17:57:40.046Z,17.16
2022-10-28T18:00:11.730Z,17.09
2022-10-28T18:02:41.334Z,17.05
2022-10-28T18:05:11.197Z,17.01
2022-10-28T18:07:40.591Z,16.95
2022-10-28T18:10:11.962Z,16.98
2022-10-28T18:12:41.061Z,16.95
2022-10-28T18:15:11.773Z,17.01
2022-10-28T18:17:40.981Z,16.90
2022-10-28T18:20:11.318Z,16.94
2022-10-28T18:22:40.628Z,16.88
2022-10-28T18:25:11.780Z,16.92
2022-10-28T18:27:41.383Z,16.88
2022-10-28T18:30:11.735Z,16.85
2022-10-28T18:32:40.913Z,16.78
2022-10-28T18:35:10.252Z,16.82
2022-10-28T18:37:39.423Z,16.80
2022-10-28T18:40:12.061Z,16.77
2022-10-28T18:42:40.949Z,16.78
2022-10-28T18:45:10.866Z,16.69
2022-10-28T18:47:40.007Z,16.81
2022-10-28T18:50:10.348Z,16.71
2022-10-28T18:52:39.477Z,16.64
2022-10-28T18:55:10.950Z,16.67
2022-10-28T18:57:40.109Z,16.71
2022-10-28T19:00:19.424Z,16.69
2022-10-28T19:02:49.202Z,16.67
2022-10-28T19:05:18.540Z,16.71
2022-10-28T19:07:47.801Z,16.71
2022-10-28T19:10:18.544Z,16.76
2022-10-28T19:12:52.769Z,16.77
2022-10-28T19:15:22.433Z,16.77
2022-10-28T19:17:54.747Z,16.75
2022-10-28T19:20:24.933Z,16.77
2022-10-28T19:22:54.431Z,16.74
2022-10-28T19:25:25.464Z,16.76
2022-10-28T19:27:54.617Z,16.51
2022-10-28T19:30:23.854Z,16.70
2022-10-28T19:32:53.460Z,16.68
2022-10-28T19:35:22.852Z,16.62
2022-10-28T19:37:54.570Z,16.68
2022-10-28T19:40:25.233Z,16.60
2022-10-28T19:42:55.434Z,16.57
2022-10-28T19:45:24.760Z,16.56
2022-10-28T19:47:54.649Z,16.49
2022-10-28T19:50:24.076Z,16.47
2022-10-28T19:52:53.188Z,16.39
2022-10-28T19:55:22.371Z,16.42
2022-10-28T19:57:53.131Z,16.44
2022-10-28T20:00:22.657Z,16.45
2022-10-28T20:02:51.855Z,16.44
2022-10-28T20:05:21.056Z,16.45
2022-10-28T20:07:50.237Z,16.43
2022-10-28T20:10:19.483Z,16.43
2022-10-28T20:12:48.791Z,16.38
2022-10-28T20:15:19.710Z,16.35
2022-10-28T20:17:49.099Z,16.39
2022-10-28T20:20:18.322Z,16.37
2022-10-28T20:22:47.725Z,16.45
2022-10-28T20:25:17.166Z,16.47
2022-10-28T20:27:46.714Z,16.43
2022-10-28T20:30:16.165Z,16.47
2022-10-28T20:32:47.486Z,16.54
2022-10-28T20:35:19.041Z,16.50
2022-10-28T20:37:48.342Z,16.43
2022-10-28T20:40:17.754Z,16.47
2022-10-28T20:42:46.952Z,16.50
2022-10-28T20:45:16.460Z,16.50
2022-10-28T20:47:47.152Z,16.50
2022-10-28T20:50:16.729Z,16.46
2022-10-28T20:52:45.919Z,16.42
2022-10-28T20:55:15.403Z,16.40
2022-10-28T20:57:44.757Z,16.43
2022-10-28T21:00:15.475Z,16.39
2022-10-28T21:02:46.452Z,16.37
2022-10-28T21:05:16.202Z,16.43
2022-10-28T21:07:45.495Z,16.48
2022-10-28T21:10:14.730Z,16.49
2022-10-28T21:12:44.128Z,16.52
2022-10-28T21:15:14.021Z,16.52
2022-10-28T21:17:43.290Z,16.42
2022-10-28T21:20:14.278Z,16.43
2022-10-28T21:22:43.631Z,16.44
2022-10-28T21:25:12.793Z,16.46
2022-10-28T21:27:42.241Z,16.44
2022-10-28T21:30:13.703Z,16.40
2022-10-28T21:32:43.011Z,16.41
2022-10-28T21:35:13.798Z,16.42
2022-10-28T21:37:42.991Z,16.40
2022-10-28T21:40:13.895Z,16.35
2022-10-28T21:42:43.652Z,16.37
2022-10-28T21:45:12.801Z,16.37
2022-10-28T21:47:41.998Z,16.37
2022-10-28T21:50:11.460Z,16.35
2022-10-28T21:52:42.197Z,16.33
2022-10-28T21:55:20.816Z,16.34
2022-10-28T21:58:00.962Z,16.30
2022-10-28T22:00:30.473Z,16.27
2022-10-28T22:02:59.632Z,16.31
2022-10-28T22:05:29.254Z,16.34
2022-10-28T22:08:03.110Z,16.30
2022-10-28T22:10:34.562Z,16.35
2022-10-28T22:13:03.719Z,16.33
2022-10-28T22:15:32.927Z,16.26
2022-10-28T22:18:02.133Z,16.19
2022-10-28T22:20:31.603Z,16.13
2022-10-28T22:23:02.949Z,16.14
2022-10-28T22:25:32.564Z,16.10
2022-10-28T22:28:01.817Z,16.11
2022-10-28T22:30:30.987Z,16.05
2022-10-28T22:33:00.197Z,16.05
2022-10-28T22:35:29.378Z,16.09
2022-10-28T22:37:58.719Z,16.13
2022-10-28T22:40:29.975Z,16.10
2022-10-28T22:42:59.423Z,16.11
2022-10-28T22:45:28.606Z,16.11
2022-10-28T22:47:58.185Z,16.13
2022-10-28T22:50:27.605Z,16.11
2022-10-28T22:52:56.830Z,16.08
2022-10-28T22:55:26.154Z,16.12
2022-10-28T22:57:57.694Z,16.13
2022-10-28T23:00:27.359Z,16.15
2022-10-28T23:02:58.354Z,16.22
2022-10-28T23:05:27.795Z,16.33
2022-10-28T23:07:59.553Z,16.34
2022-10-28T23:10:29.093Z,16.31
2022-10-28T23:13:00.419Z,16.38
2022-10-28T23:15:30.517Z,16.35
2022-10-28T23:17:59.814Z,16.34
2022-10-28T23:20:30.401Z,16.38
2022-10-28T23:22:59.492Z,16.45
2022-10-28T23:25:28.706Z,16.48
2022-10-28T23:27:59.444Z,16.53
2022-10-28T23:30:28.759Z,16.46
2022-10-28T23:32:59.043Z,16.51
2022-10-28T23:35:28.261Z,16.45
2022-10-28T23:37:57.764Z,16.49
2022-10-28T23:40:27.421Z,16.53
2022-10-28T23:42:56.936Z,16.54
2022-10-28T23:45:27.747Z,16.44
2022-10-28T23:47:56.884Z,16.49
2022-10-28T23:50:26.171Z,16.52
2022-10-28T23:52:56.441Z,16.48
2022-10-28T23:55:25.849Z,16.48
2022-10-28T23:57:58.328Z,16.51
